Time;durP1;ratioP1;P1;durP2;ratioP2;P2;SDS_P1;SDS_P2;PMS_P1;PMS_P2;Temp;Humidity;BMP_temperature;BMP_pressure;BME280_temperature;BME280_humidity;BME280_pressure;Samples;Min_cycle;Max_cycle;Signal;HPM_P1;HPM_P2
2021/08/25 00:02:12;;;;;;;4.95;3.30;;;14.60;99.90;;;;;;4991191;28;20112;-67
2021/08/25 00:04:40;;;;;;;6.13;3.38;;;14.70;99.90;;;;;;4991308;28;20077;-65
2021/08/25 00:07:08;;;;;;;3.83;3.15;;;14.70;99.90;;;;;;4991138;28;20545;-70
2021/08/25 00:09:36;;;;;;;7.78;4.00;;;14.80;99.90;;;;;;4989605;28;20125;-66
2021/08/25 00:12:05;;;;;;;4.93;2.60;;;14.70;99.90;;;;;;4991199;28;20096;-65
2021/08/25 00:14:33;;;;;;;5.70;3.28;;;14.80;99.90;;;;;;4990191;28;20448;-67
2021/08/25 00:16:59;;;;;;;4.25;2.90;;;14.80;99.90;;;;;;4990929;28;20185;-69
2021/08/25 00:19:26;;;;;;;5.75;3.10;;;14.80;99.90;;;;;;4989640;28;20078;-66
2021/08/25 00:21:54;;;;;;;2.97;2.60;;;14.80;99.90;;;;;;4990901;28;20046;-66
2021/08/25 00:24:21;;;;;;;4.25;2.83;;;14.80;99.90;;;;;;4990768;28;20046;-65
2021/08/25 00:26:48;;;;;;;4.85;3.50;;;14.80;99.90;;;;;;4990932;28;20062;-70
2021/08/25 00:29:16;;;;;;;4.10;3.20;;;14.80;99.90;;;;;;5004217;28;20061;-66
2021/08/25 00:31:43;;;;;;;5.03;3.85;;;14.80;99.90;;;;;;4990796;28;20119;-64
2021/08/25 00:34:11;;;;;;;4.70;3.38;;;14.90;99.90;;;;;;4990924;28;20113;-69
2021/08/25 00:36:37;;;;;;;3.83;3.03;;;15.00;99.90;;;;;;4990812;28;20405;-71
2021/08/25 00:39:05;;;;;;;3.88;2.63;;;15.00;99.90;;;;;;4990711;28;20062;-71
2021/08/25 00:41:32;;;;;;;4.53;3.38;;;15.00;99.90;;;;;;4989210;28;20046;-68
2021/08/25 00:43:59;;;;;;;6.63;3.25;;;15.00;99.90;;;;;;4990737;28;20133;-68
2021/08/25 00:46:35;;;;;;;5.97;3.58;;;15.20;99.90;;;;;;4990546;28;20129;-65
2021/08/25 00:49:02;;;;;;;4.35;2.58;;;15.20;99.90;;;;;;4990607;28;20054;-67
2021/08/25 00:51:32;;;;;;;4.03;3.50;;;15.20;99.90;;;;;;4989428;28;20043;-66
2021/08/25 00:54:02;;;;;;;5.55;3.45;;;15.30;99.90;;;;;;4990557;28;20050;-67
2021/08/25 00:56:29;;;;;;;3.80;3.17;;;15.40;99.90;;;;;;4990429;28;20093;-70
2021/08/25 00:58:56;;;;;;;3.58;2.70;;;15.40;99.90;;;;;;4990181;28;20089;-67
2021/08/25 01:01:32;;;;;;;5.00;2.67;;;15.40;99.90;;;;;;5009871;23;20078;-70
2021/08/25 01:04:26;;;;;;;3.38;2.38;;;15.50;99.90;;;;;;5010095;28;20042;-74
2021/08/25 01:06:55;;;;;;;5.28;2.90;;;15.50;99.90;;;;;;5009440;28;20079;-70
2021/08/25 01:09:22;;;;;;;4.25;2.53;;;15.50;99.90;;;;;;5008728;28;20132;-70
2021/08/25 01:11:49;;;;;;;6.15;3.28;;;15.50;99.90;;;;;;5009918;28;20103;-70
2021/08/25 01:14:16;;;;;;;5.30;3.15;;;15.60;99.90;;;;;;5009984;28;20069;-67
2021/08/25 01:16:45;;;;;;;3.97;2.80;;;15.60;99.90;;;;;;5009965;28;20424;-69
2021/08/25 01:19:16;;;;;;;4.88;3.22;;;15.60;99.90;;;;;;5010037;28;20073;-70
2021/08/25 01:21:45;;;;;;;3.35;2.60;;;15.60;99.90;;;;;;5008637;28;20073;-69
2021/08/25 01:24:13;;;;;;;4.85;2.85;;;15.60;99.90;;;;;;5009675;28;20488;-68
2021/08/25 01:26:41;;;;;;;6.30;3.33;;;15.60;99.90;;;;;;5013572;28;20077;-69
2021/08/25 01:29:27;;;;;;;4.28;3.03;;;15.70;99.90;;;;;;5013684;28;20065;-69
2021/08/25 01:31:54;;;;;;;3.58;2.58;;;15.70;99.90;;;;;;5012853;28;20092;-75
2021/08/25 01:34:21;;;;;;;5.20;2.45;;;15.80;99.90;;;;;;5013859;28;20121;-68
2021/08/25 01:36:53;;;;;;;5.28;2.67;;;15.90;99.90;;;;;;5013641;28;20444;-71
2021/08/25 01:39:21;;;;;;;4.85;3.22;;;15.90;99.90;;;;;;5012131;28;20099;-68
2021/08/25 01:41:49;;;;;;;3.25;2.53;;;15.90;99.90;;;;;;5013816;28;20468;-68
2021/08/25 01:44:16;;;;;;;3.80;2.67;;;16.00;99.90;;;;;;5013464;28;20088;-73
2021/08/25 01:46:44;;;;;;;5.05;3.03;;;16.00;99.90;;;;;;5013490;28;20425;-72
2021/08/25 01:49:12;;;;;;;4.68;3.05;;;16.00;99.90;;;;;;5013319;28;20053;-68
2021/08/25 01:51:41;;;;;;;3.22;2.10;;;16.00;99.90;;;;;;5012277;28;20065;-67
2021/08/25 01:54:10;;;;;;;7.82;3.20;;;16.00;99.90;;;;;;5013112;28;20042;-69
2021/08/25 01:56:41;;;;;;;4.45;2.60;;;16.00;99.90;;;;;;5013165;28;20068;-72
2021/08/25 01:59:09;;;;;;;3.97;2.63;;;16.10;99.90;;;;;;5040260;28;20050;-72
2021/08/25 02:01:35;;;;;;;3.72;2.88;;;16.10;99.90;;;;;;5031437;28;20046;-69
2021/08/25 02:04:03;;;;;;;7.85;2.72;;;16.20;99.90;;;;;;5032658;28;20053;-70
2021/08/25 02:06:30;;;;;;;4.35;2.80;;;16.20;99.90;;;;;;5032971;28;20049;-69
2021/08/25 02:08:57;;;;;;;7.15;2.97;;;16.20;99.90;;;;;;5033146;28;20076;-70
2021/08/25 02:11:25;;;;;;;4.43;2.17;;;16.30;99.90;;;;;;5031398;28;20045;-74
2021/08/25 02:13:53;;;;;;;5.22;3.53;;;16.20;99.90;;;;;;5032545;28;20494;-71
2021/08/25 02:16:20;;;;;;;3.05;2.38;;;16.30;99.90;;;;;;5032616;28;20174;-71
2021/08/25 02:18:47;;;;;;;3.10;2.55;;;16.30;99.90;;;;;;5032768;28;20399;-71
2021/08/25 02:21:14;;;;;;;2.65;2.08;;;16.30;99.90;;;;;;5031111;28;20073;-68
2021/08/25 02:23:42;;;;;;;3.92;2.22;;;16.30;99.90;;;;;;5032915;28;20072;-72
2021/08/25 02:26:16;;;;;;;2.00;1.77;;;16.30;99.90;;;;;;5032646;28;20112;-70
2021/08/25 02:28:47;;;;;;;4.85;2.75;;;16.30;99.90;;;;;;5032453;28;20417;-69
2021/08/25 02:31:15;;;;;;;4.32;2.53;;;16.30;99.90;;;;;;5030780;28;20057;-68
2021/08/25 02:33:42;;;;;;;2.67;2.05;;;16.30;99.90;;;;;;5032144;28;20092;-68
2021/08/25 02:36:10;;;;;;;3.38;2.33;;;16.30;99.90;;;;;;5031272;28;20072;-69
2021/08/25 02:38:39;;;;;;;2.58;2.03;;;16.30;99.90;;;;;;5032448;28;20053;-68
2021/08/25 02:41:09;;;;;;;3.15;2.85;;;16.20;99.90;;;;;;5032158;28;20365;-67
2021/08/25 02:43:36;;;;;;;3.45;2.97;;;16.20;99.90;;;;;;5031141;28;20083;-68
2021/08/25 02:46:04;;;;;;;8.13;3.67;;;16.20;99.90;;;;;;5032072;28;20076;-71
2021/08/25 02:48:31;;;;;;;2.60;1.90;;;16.10;99.90;;;;;;5032162;28;20065;-69
2021/08/25 02:50:58;;;;;;;3.03;1.88;;;16.10;99.90;;;;;;5032069;28;20099;-72
2021/08/25 02:53:25;;;;;;;4.68;2.70;;;16.10;99.90;;;;;;5030449;28;20456;-76
2021/08/25 02:55:53;;;;;;;3.33;2.28;;;16.10;99.90;;;;;;5032234;28;20049;-70
2021/08/25 02:58:20;;;;;;;3.28;2.95;;;16.10;99.90;;;;;;5032088;28;20442;-71
2021/08/25 03:00:46;;;;;;;5.53;2.25;;;16.10;99.90;;;;;;5031837;28;20399;-71
2021/08/25 03:03:14;;;;;;;2.85;2.08;;;16.10;99.90;;;;;;5030337;28;20056;-71
2021/08/25 03:05:41;;;;;;;4.15;2.90;;;16.10;99.90;;;;;;5031527;28;20048;-69
2021/08/25 03:08:08;;;;;;;3.00;2.10;;;16.00;99.90;;;;;;5031476;28;20111;-70
2021/08/25 03:10:36;;;;;;;4.82;3.58;;;16.00;99.90;;;;;;5031944;28;20504;-71
2021/08/25 03:13:03;;;;;;;6.28;3.03;;;15.90;99.90;;;;;;5031658;28;20140;-73
2021/08/25 03:15:29;;;;;;;4.60;3.30;;;15.90;99.90;;;;;;5030391;28;20120;-74
2021/08/25 03:17:56;;;;;;;3.25;2.05;;;15.90;99.90;;;;;;5031699;28;20068;-75
2021/08/25 03:20:23;;;;;;;9.38;3.55;;;15.90;99.90;;;;;;5031539;28;20077;-72
2021/08/25 03:22:50;;;;;;;4.05;2.88;;;15.90;99.90;;;;;;5031297;28;20415;-73
2021/08/25 03:25:17;;;;;;;3.58;2.17;;;16.00;99.90;;;;;;5030225;28;20368;-71
2021/08/25 03:27:44;;;;;;;6.93;2.67;;;16.00;99.90;;;;;;5031150;28;20046;-73
2021/08/25 03:30:11;;;;;;;5.15;2.65;;;16.00;99.90;;;;;;5031239;28;20065;-77
2021/08/25 03:32:38;;;;;;;6.05;2.58;;;16.00;99.90;;;;;;5031271;28;20403;-74
2021/08/25 03:35:06;;;;;;;6.43;2.10;;;16.00;99.90;;;;;;5030953;28;20041;-72
2021/08/25 03:37:33;;;;;;;4.22;2.67;;;16.10;99.90;;;;;;5029551;28;20053;-75
2021/08/25 03:40:00;;;;;;;2.78;2.45;;;16.10;99.90;;;;;;5030985;28;20038;-72
2021/08/25 03:42:27;;;;;;;4.68;2.40;;;16.10;99.90;;;;;;5031418;28;20514;-70
2021/08/25 03:44:54;;;;;;;2.92;2.45;;;16.20;99.90;;;;;;5031312;28;20073;-76
2021/08/25 03:47:21;;;;;;;4.70;2.67;;;16.20;99.90;;;;;;5029692;28;20120;-74
2021/08/25 03:49:48;;;;;;;4.35;1.95;;;16.20;99.90;;;;;;5031242;28;20148;-74
2021/08/25 03:52:15;;;;;;;2.70;2.50;;;16.20;99.90;;;;;;5030801;28;20523;-76
2021/08/25 03:54:45;;;;;;;5.82;3.33;;;16.30;99.90;;;;;;5030919;28;20045;-73
2021/08/25 03:57:12;;;;;;;7.55;2.92;;;16.30;99.90;;;;;;5030666;28;20071;-70
2021/08/25 03:59:39;;;;;;;3.03;2.72;;;16.30;99.90;;;;;;5029403;28;20128;-72
2021/08/25 04:02:05;;;;;;;2.60;2.38;;;16.20;99.90;;;;;;5030317;28;20072;-70
2021/08/25 04:04:33;;;;;;;4.82;2.42;;;16.20;99.90;;;;;;5030369;28;20045;-70
2021/08/25 04:06:59;;;;;;;6.32;2.55;;;16.20;99.90;;;;;;5030316;28;20077;-73
2021/08/25 04:09:26;;;;;;;5.93;2.17;;;16.20;99.90;;;;;;5028895;28;20458;-72
2021/08/25 04:11:53;;;;;;;3.38;2.22;;;16.20;99.90;;;;;;5030458;28;20559;-71
2021/08/25 04:14:20;;;;;;;4.22;2.53;;;16.20;99.90;;;;;;5030479;28;20140;-70
2021/08/25 04:16:47;;;;;;;9.15;2.63;;;16.20;99.90;;;;;;5030324;28;20464;-74
2021/08/25 04:19:14;;;;;;;3.85;2.70;;;16.20;99.90;;;;;;5028504;28;20083;-71
2021/08/25 04:21:41;;;;;;;3.50;2.22;;;16.20;99.90;;;;;;5030137;28;20395;-71
2021/08/25 04:24:08;;;;;;;5.43;3.05;;;16.20;99.90;;;;;;5029988;28;20191;-74
2021/08/25 04:26:35;;;;;;;21.00;3.08;;;16.20;99.90;;;;;;5030017;28;20502;-70
2021/08/25 04:29:02;;;;;;;9.05;2.92;;;16.20;99.90;;;;;;5030091;28;20056;-71
2021/08/25 04:31:28;;;;;;;6.63;3.05;;;16.20;99.90;;;;;;5028632;28;20098;-71
2021/08/25 04:33:55;;;;;;;5.28;2.28;;;16.20;99.90;;;;;;5029973;28;20049;-72
2021/08/25 04:36:22;;;;;;;2.85;2.40;;;16.20;99.90;;;;;;5029959;28;20064;-73
2021/08/25 04:38:49;;;;;;;6.32;2.63;;;16.20;99.90;;;;;;5030026;28;20072;-70
2021/08/25 04:41:16;;;;;;;7.90;2.80;;;16.20;99.90;;;;;;5028785;28;20075;-72
2021/08/25 04:43:43;;;;;;;6.32;3.05;;;16.20;99.90;;;;;;5029877;28;20137;-73
2021/08/25 04:46:17;;;;;;;5.20;2.92;;;16.20;99.90;;;;;;5029827;28;20064;-71
2021/08/25 04:48:44;;;;;;;4.22;2.72;;;16.20;99.90;;;;;;5029857;28;20069;-71
2021/08/25 04:51:12;;;;;;;4.63;2.58;;;16.20;99.90;;;;;;5030291;28;20041;-72
2021/08/25 04:53:39;;;;;;;3.05;1.83;;;16.20;99.90;;;;;;5028388;28;20504;-71
2021/08/25 04:56:07;;;;;;;7.82;2.80;;;16.20;99.90;;;;;;5029874;28;20129;-74
2021/08/25 04:58:35;;;;;;;4.03;2.50;;;16.20;99.90;;;;;;5029759;28;20416;-69
2021/08/25 05:01:04;;;;;;;2.47;2.28;;;16.20;99.90;;;;;;5027923;28;20050;-70
2021/08/25 05:03:33;;;;;;;6.10;3.83;;;16.20;99.90;;;;;;5028648;28;20167;-69
2021/08/25 05:06:12;;;;;;;3.75;2.45;;;16.20;99.90;;;;;;5030070;28;20068;-76
2021/08/25 05:08:39;;;;;;;4.53;2.63;;;16.20;99.90;;;;;;5029882;28;20079;-71
2021/08/25 05:11:08;;;;;;;5.10;2.70;;;16.20;99.90;;;;;;5029912;28;20583;-70
2021/08/25 05:13:37;;;;;;;3.15;2.83;;;16.30;99.90;;;;;;5028287;28;20120;-70
2021/08/25 05:16:11;;;;;;;4.45;2.50;;;16.30;99.90;;;;;;5029635;28;20379;-69
2021/08/25 05:18:39;;;;;;;5.95;3.25;;;16.30;99.90;;;;;;5029672;28;20486;-73
2021/08/25 05:21:06;;;;;;;7.32;2.40;;;16.30;99.90;;;;;;5028278;28;20045;-69
2021/08/25 05:23:34;;;;;;;3.30;2.33;;;16.30;99.90;;;;;;5028035;28;20091;-71
2021/08/25 05:26:02;;;;;;;8.00;2.80;;;16.40;99.90;;;;;;5029314;28;20041;-74
2021/08/25 05:28:29;;;;;;;5.55;3.10;;;16.40;99.90;;;;;;5029607;28;20037;-71
2021/08/25 05:30:56;;;;;;;5.90;2.75;;;16.40;99.90;;;;;;5029445;28;20443;-73
2021/08/25 05:33:23;;;;;;;4.90;1.95;;;16.40;99.90;;;;;;5028537;28;20068;-72
2021/08/25 05:35:50;;;;;;;5.07;2.38;;;16.40;99.90;;;;;;5029596;28;20045;-69
2021/08/25 05:38:16;;;;;;;10.70;3.13;;;16.50;99.90;;;;;;5029352;28;20073;-69
2021/08/25 05:40:43;;;;;;;3.97;2.30;;;16.50;99.90;;;;;;5029672;28;20526;-70
2021/08/25 05:43:10;;;;;;;5.45;2.42;;;16.40;99.90;;;;;;5029334;28;20080;-72
2021/08/25 05:45:37;;;;;;;4.20;2.50;;;16.40;99.90;;;;;;5027898;28;20076;-74
2021/08/25 05:48:05;;;;;;;4.57;2.90;;;16.40;99.90;;;;;;5029048;28;20053;-74
2021/08/25 05:50:31;;;;;;;4.82;2.88;;;16.40;99.90;;;;;;5029284;28;20084;-72
2021/08/25 05:52:58;;;;;;;5.65;3.30;;;16.40;99.90;;;;;;5029531;28;20535;-76
2021/08/25 05:55:25;;;;;;;3.13;2.38;;;16.40;99.90;;;;;;5028347;28;20054;-73
2021/08/25 05:57:53;;;;;;;10.43;4.88;;;16.40;99.90;;;;;;5029659;28;20353;-72
2021/08/25 06:00:20;;;;;;;5.13;2.80;;;16.40;99.90;;;;;;5029704;28;20076;-69
2021/08/25 06:02:50;;;;;;;4.43;2.40;;;16.30;99.90;;;;;;5030040;28;20415;-69
2021/08/25 06:05:18;;;;;;;4.10;2.53;;;16.30;99.90;;;;;;5028471;28;20052;-69
2021/08/25 06:07:45;;;;;;;8.25;2.90;;;16.40;99.90;;;;;;5029457;28;20049;-70
2021/08/25 06:10:12;;;;;;;3.28;2.60;;;16.40;99.90;;;;;;5029996;28;20065;-70
2021/08/25 06:12:39;;;;;;;4.82;2.90;;;16.40;99.90;;;;;;5018835;28;20100;-69
2021/08/25 06:15:06;;;;;;;5.10;3.55;;;16.40;99.90;;;;;;5013879;28;20120;-70
2021/08/25 06:17:34;;;;;;;4.15;2.50;;;16.40;99.90;;;;;;5012450;28;20054;-70
2021/08/25 06:20:01;;;;;;;4.60;3.30;;;16.40;99.90;;;;;;5013310;28;20042;-69
2021/08/25 06:22:28;;;;;;;6.80;2.63;;;16.30;99.90;;;;;;5012094;28;20091;-69
2021/08/25 06:24:56;;;;;;;3.95;2.38;;;16.30;99.90;;;;;;5013537;28;20456;-70
2021/08/25 06:27:24;;;;;;;4.28;2.75;;;16.30;99.90;;;;;;5012058;28;20538;-72
2021/08/25 06:29:51;;;;;;;5.95;1.80;;;16.20;99.90;;;;;;5013470;28;20053;-69
2021/08/25 06:32:18;;;;;;;7.22;2.72;;;16.10;99.90;;;;;;5013054;28;20165;-69
2021/08/25 06:34:45;;;;;;;4.53;3.03;;;16.10;99.90;;;;;;5013185;28;20411;-68
2021/08/25 06:37:12;;;;;;;2.97;1.98;;;16.00;99.90;;;;;;5013338;28;20128;-69
2021/08/25 06:39:39;;;;;;;3.13;2.05;;;16.00;99.90;;;;;;5031494;28;20045;-69
2021/08/25 06:42:06;;;;;;;3.60;2.05;;;16.00;99.90;;;;;;5031253;28;20045;-69
2021/08/25 06:44:33;;;;;;;9.93;2.75;;;15.90;99.90;;;;;;5032814;28;20141;-69
2021/08/25 06:47:00;;;;;;;3.05;1.80;;;15.90;99.90;;;;;;5032513;28;20045;-75
2021/08/25 06:49:27;;;;;;;3.13;2.72;;;16.00;99.90;;;;;;5031079;28;20072;-69
2021/08/25 06:51:54;;;;;;;3.63;1.70;;;15.90;99.90;;;;;;5032392;28;20056;-68
2021/08/25 06:54:20;;;;;;;3.40;1.77;;;15.90;99.90;;;;;;5032340;28;20438;-69
2021/08/25 06:56:47;;;;;;;4.00;1.67;;;15.90;99.90;;;;;;5032849;28;20084;-70
2021/08/25 06:59:14;;;;;;;4.38;2.45;;;15.90;99.90;;;;;;5031241;28;20053;-68
2021/08/25 07:01:42;;;;;;;4.25;2.35;;;16.00;99.90;;;;;;5031923;28;20126;-69
2021/08/25 07:04:09;;;;;;;5.47;2.22;;;16.00;99.90;;;;;;5032218;28;20040;-68
2021/08/25 07:06:36;;;;;;;3.92;1.80;;;16.00;99.90;;;;;;5032337;28;20536;-71
2021/08/25 07:09:04;;;;;;;4.05;2.47;;;15.90;99.90;;;;;;5031813;28;20065;-68
2021/08/25 07:11:33;;;;;;;2.53;2.20;;;16.00;99.90;;;;;;5030738;28;20442;-68
2021/08/25 07:14:01;;;;;;;3.67;2.92;;;16.00;99.90;;;;;;5031957;28;20053;-72
2021/08/25 07:16:33;;;;;;;4.57;2.30;;;15.90;99.90;;;;;;5031814;28;20136;-68
2021/08/25 07:19:01;;;;;;;2.80;1.60;;;15.80;99.90;;;;;;5032569;28;20046;-73
2021/08/25 07:21:29;;;;;;;4.47;2.25;;;15.80;99.90;;;;;;5030630;28;20128;-72
2021/08/25 07:23:56;;;;;;;7.90;2.83;;;15.80;99.90;;;;;;5031575;28;20105;-70
2021/08/25 07:26:23;;;;;;;9.00;2.90;;;15.80;99.90;;;;;;5032454;28;20416;-68
2021/08/25 07:28:51;;;;;;;7.53;2.97;;;15.70;99.90;;;;;;5032150;28;20132;-68
2021/08/25 07:31:18;;;;;;;7.57;3.72;;;15.50;99.90;;;;;;5030486;28;20144;-68
2021/08/25 07:33:45;;;;;;;7.82;3.55;;;15.20;99.90;;;;;;5031907;28;20049;-70
2021/08/25 07:36:17;;;;;;;15.45;4.65;;;15.10;99.90;;;;;;5031879;28;20061;-68
2021/08/25 07:38:44;;;;;;;9.48;4.15;;;14.90;99.90;;;;;;5031743;28;20045;-68
2021/08/25 07:41:11;;;;;;;11.60;4.15;;;14.80;99.90;;;;;;5031807;28;20041;-70
2021/08/25 07:43:38;;;;;;;10.20;3.42;;;14.70;99.90;;;;;;5030039;28;20132;-70
2021/08/25 07:46:04;;;;;;;6.05;3.55;;;14.60;99.90;;;;;;5031305;28;20453;-69
2021/08/25 07:48:32;;;;;;;8.30;3.70;;;14.50;99.90;;;;;;5031549;28;20042;-70
2021/08/25 07:50:59;;;;;;;7.68;4.03;;;14.50;99.90;;;;;;5031309;28;20399;-73
2021/08/25 07:53:26;;;;;;;15.90;5.78;;;14.40;99.90;;;;;;5029974;28;20474;-70
2021/08/25 07:55:54;;;;;;;7.82;3.97;;;14.40;99.90;;;;;;5031058;28;20091;-73
2021/08/25 07:58:21;;;;;;;5.93;4.22;;;14.30;99.90;;;;;;5031202;28;20065;-71
2021/08/25 08:01:08;;;;;;;10.90;5.05;;;14.30;99.90;;;;;;5030952;28;20140;-71
2021/08/25 08:03:35;;;;;;;6.45;3.38;;;14.20;99.90;;;;;;5029332;28;20091;-74
2021/08/25 08:06:02;;;;;;;10.57;4.53;;;14.20;99.90;;;;;;5031063;28;20045;-72
2021/08/25 08:08:29;;;;;;;12.90;6.00;;;14.10;99.90;;;;;;5031281;28;20049;-72
2021/08/25 08:10:56;;;;;;;8.68;3.63;;;14.20;99.90;;;;;;5031061;28;20068;-72
2021/08/25 08:13:23;;;;;;;6.03;3.30;;;14.20;99.90;;;;;;5029556;28;20080;-75
2021/08/25 08:15:51;;;;;;;9.07;3.95;;;14.10;99.90;;;;;;5031034;28;20041;-73
2021/08/25 08:18:30;;;;;;;8.60;3.80;;;14.10;99.90;;;;;;5030894;28;20049;-73
2021/08/25 08:20:58;;;;;;;12.70;4.30;;;14.20;99.90;;;;;;5031180;28;20486;-73
2021/08/25 08:23:25;;;;;;;7.82;3.97;;;14.20;99.90;;;;;;5029555;28;20048;-75
2021/08/25 08:25:56;;;;;;;8.40;4.30;;;14.20;99.90;;;;;;5029457;28;20041;-73
2021/08/25 08:28:23;;;;;;;9.10;3.53;;;14.20;99.90;;;;;;5029414;28;20133;-74
2021/08/25 08:30:49;;;;;;;7.68;3.58;;;14.20;99.90;;;;;;5030838;28;20096;-74
2021/08/25 08:33:16;;;;;;;7.68;5.05;;;14.10;99.90;;;;;;5029526;28;20052;-74
2021/08/25 08:35:43;;;;;;;8.52;4.30;;;14.20;99.90;;;;;;5030177;28;20050;-76
2021/08/25 08:38:10;;;;;;;10.80;4.20;;;14.10;99.90;;;;;;5030707;28;20103;-78
2021/08/25 08:40:37;;;;;;;7.65;3.65;;;14.20;99.90;;;;;;5030704;28;20052;-76
2021/08/25 08:43:09;;;;;;;13.70;4.60;;;14.20;99.90;;;;;;5030534;28;20120;-74
2021/08/25 08:45:42;;;;;;;8.32;4.75;;;14.30;99.90;;;;;;5029188;28;20440;-79
2021/08/25 08:48:11;;;;;;;11.00;5.00;;;14.40;99.90;;;;;;5030651;28;20049;-74
2021/08/25 08:50:40;;;;;;;10.00;4.75;;;14.40;99.90;;;;;;5030477;28;20115;-75
2021/08/25 08:53:09;;;;;;;10.48;4.22;;;14.50;99.90;;;;;;5030292;28;20061;-77
2021/08/25 08:55:37;;;;;;;7.50;3.97;;;14.50;99.90;;;;;;5029106;28;20068;-74
2021/08/25 08:58:08;;;;;;;4.70;3.53;;;14.50;99.90;;;;;;5030113;28;20045;-75
2021/08/25 09:00:35;;;;;;;8.27;3.88;;;14.50;99.90;;;;;;5030303;28;20439;-74
2021/08/25 09:03:02;;;;;;;8.73;4.30;;;14.60;99.90;;;;;;5030393;28;20376;-75
2021/08/25 09:05:32;;;;;;;6.93;4.20;;;14.60;99.90;;;;;;5029056;28;20073;-78
2021/08/25 09:08:01;;;;;;;7.13;3.53;;;14.70;99.90;;;;;;5030216;28;20349;-74
2021/08/25 09:10:34;;;;;;;5.72;4.13;;;14.60;99.90;;;;;;5030457;28;20467;-74
2021/08/25 09:13:06;;;;;;;4.38;3.65;;;14.60;99.90;;;;;;5030276;28;20050;-76
2021/08/25 09:15:37;;;;;;;9.75;4.82;;;14.60;99.90;;;;;;5028613;28;20499;-76
2021/08/25 09:18:10;;;;;;;6.20;4.35;;;14.60;99.90;;;;;;5030125;28;20056;-79
2021/08/25 09:20:42;;;;;;;5.78;3.22;;;14.50;99.90;;;;;;5030523;28;20167;-74
2021/08/25 09:23:13;;;;;;;5.03;4.28;;;14.50;99.90;;;;;;5030141;28;20041;-75
2021/08/25 09:25:42;;;;;;;5.40;3.58;;;14.60;99.90;;;;;;5026988;28;20100;-74
2021/08/25 09:28:12;;;;;;;9.13;3.95;;;14.60;99.90;;;;;;5028442;28;20523;-75
2021/08/25 09:30:53;;;;;;;6.75;4.13;;;14.60;99.90;;;;;;5030043;28;20107;-75
2021/08/25 09:33:34;;;;;;;10.82;5.63;;;14.80;99.90;;;;;;5028961;28;20122;-74
2021/08/25 09:36:04;;;;;;;6.18;4.40;;;14.90;99.90;;;;;;5030163;28;20115;-75
2021/08/25 09:38:32;;;;;;;;;;;15.00;99.90;;;;;;5030583;28;20107;-72
2021/08/25 09:41:12;;;;;;;9.93;5.38;;;15.20;99.90;;;;;;5030033;28;19921;-76
2021/08/25 09:43:44;;;;;;;6.57;4.72;;;15.20;99.90;;;;;;5028558;28;20064;-73
2021/08/25 09:46:17;;;;;;;11.52;5.25;;;15.20;99.90;;;;;;5031715;28;20045;-73
2021/08/25 09:48:46;;;;;;;7.70;4.50;;;15.10;99.90;;;;;;5033782;28;20080;-70
2021/08/25 09:51:15;;;;;;;9.10;4.88;;;15.10;99.90;;;;;;5033709;28;20447;-73
2021/08/25 09:53:45;;;;;;;6.37;5.33;;;15.10;99.90;;;;;;5031030;28;20467;-73
2021/08/25 09:56:25;;;;;;;10.40;4.90;;;15.10;99.90;;;;;;5033619;28;20497;-71
2021/08/25 09:58:53;;;;;;;6.25;4.50;;;15.10;99.90;;;;;;5033950;28;20079;-73
2021/08/25 10:01:20;;;;;;;8.32;4.65;;;15.10;99.90;;;;;;5031626;28;20111;-72
2021/08/25 10:03:48;;;;;;;9.25;5.95;;;15.10;99.90;;;;;;5033254;28;20395;-71
2021/08/25 10:06:21;;;;;;;9.10;5.10;;;15.10;99.90;;;;;;5033454;28;20372;-76
2021/08/25 10:08:48;;;;;;;10.82;5.22;;;15.20;99.90;;;;;;5033411;28;20087;-72
2021/08/25 10:11:17;;;;;;;5.63;5.03;;;15.20;99.90;;;;;;5031660;28;20378;-73
2021/08/25 10:13:44;;;;;;;13.65;4.97;;;15.20;99.90;;;;;;5032861;28;20434;-71
2021/08/25 10:16:40;;;;;;;9.07;5.10;;;15.20;99.90;;;;;;5032646;28;20129;-74
2021/08/25 10:19:23;;;;;;;7.45;5.22;;;15.20;99.90;;;;;;5032947;28;20053;-76
2021/08/25 10:21:51;;;;;;;5.50;4.15;;;15.30;99.90;;;;;;5031889;28;20061;-71
2021/08/25 10:24:19;;;;;;;7.72;5.80;;;15.40;99.90;;;;;;5032975;28;20068;-76
2021/08/25 10:26:57;;;;;;;10.00;6.75;;;15.50;99.90;;;;;;5033080;28;20077;-71
2021/08/25 10:29:26;;;;;;;7.93;4.80;;;15.60;99.90;;;;;;5030087;28;20092;-72
2021/08/25 10:31:53;;;;;;;9.32;3.97;;;15.80;99.90;;;;;;5032569;28;20057;-72
2021/08/25 10:34:27;;;;;;;6.20;3.60;;;15.80;99.90;;;;;;5032665;28;20085;-71
2021/08/25 10:37:25;;;;;;;4.50;3.50;;;16.00;99.90;;;;;;5033463;28;20561;-73
2021/08/25 10:40:00;;;;;;;5.75;4.35;;;16.10;99.90;;;;;;5031941;28;20062;-71
2021/08/25 10:42:50;;;;;;;6.78;4.00;;;16.40;99.90;;;;;;5032606;28;20385;-71
2021/08/25 10:45:45;;;;;;;5.68;3.20;;;16.40;99.90;;;;;;5031226;28;20049;-82
2021/08/25 10:48:13;;;;;;;8.45;4.30;;;16.40;99.90;;;;;;5031733;28;20072;-74
2021/08/25 10:50:58;;;;;;;5.40;4.25;;;16.50;99.90;;;;;;5031809;28;20108;-77
2021/08/25 10:53:31;;;;;;;4.50;3.83;;;16.50;99.90;;;;;;5028898;28;20440;-74
2021/08/25 10:56:26;;;;;;;9.80;4.43;;;16.50;99.90;;;;;;5029883;28;20041;-74
2021/08/25 10:59:04;;;;;;;12.40;4.97;;;16.50;99.90;;;;;;5031022;28;20042;-77
2021/08/25 11:01:36;;;;;;;6.85;3.75;;;16.60;99.90;;;;;;5029679;28;20103;-77
2021/08/25 11:04:19;;;;;;;7.60;4.55;;;16.80;99.90;;;;;;5031400;28;20073;-75
2021/08/25 11:06:51;;;;;;;13.02;4.47;;;17.00;99.90;;;;;;5031540;28;20118;-78
2021/08/25 11:09:22;;;;;;;5.82;4.10;;;17.10;99.90;;;;;;5030054;28;20395;-76
2021/08/25 11:11:50;;;;;;;6.80;4.32;;;17.20;99.90;;;;;;5031706;28;20087;-71
2021/08/25 11:14:37;;;;;;;5.80;3.28;;;17.10;99.90;;;;;;5031315;28;20125;-74
2021/08/25 11:17:11;;;;;;;8.43;4.13;;;17.10;99.90;;;;;;5031375;28;20045;-74
2021/08/25 11:19:40;;;;;;;7.82;3.90;;;17.00;99.90;;;;;;5029778;28;20069;-73
2021/08/25 11:22:15;;;;;;;6.38;4.15;;;17.00;99.90;;;;;;5031271;28;20103;-75
2021/08/25 11:24:46;;;;;;;8.73;4.18;;;16.90;99.90;;;;;;5031320;28;20088;-76
2021/08/25 11:27:25;;;;;;;10.27;4.28;;;16.80;99.90;;;;;;5031286;28;20105;-74
2021/08/25 11:30:12;;;;;;;7.40;4.35;;;16.80;99.90;;;;;;5044851;28;20091;-77
2021/08/25 11:33:03;;;;;;;3.85;3.45;;;16.80;99.90;;;;;;5031176;28;20049;-71
2021/08/25 11:35:44;;;;;;;6.55;3.72;;;16.90;99.90;;;;;;5029572;28;20069;-74
2021/08/25 11:38:17;;;;;;;9.55;6.40;;;16.90;99.90;;;;;;5030999;28;20053;-72
2021/08/25 11:40:48;;;;;;;5.65;3.95;;;16.90;99.90;;;;;;5031170;28;20538;-71
2021/08/25 11:43:20;;;;;;;7.18;4.07;;;16.70;99.90;;;;;;5029583;28;20092;-81
2021/08/25 11:45:56;;;;;;;9.95;4.40;;;16.70;99.90;;;;;;5029463;28;20466;-74
2021/08/25 11:48:30;;;;;;;5.63;3.30;;;16.80;99.90;;;;;;5030904;28;20432;-75
2021/08/25 11:50:59;;;;;;;11.50;4.47;;;16.80;99.90;;;;;;5030808;28;20485;-70
2021/08/25 11:53:28;;;;;;;9.13;5.13;;;17.00;99.90;;;;;;5029607;28;20092;-73
2021/08/25 11:55:58;;;;;;;12.15;4.63;;;17.30;99.90;;;;;;5030759;28;20168;-75
2021/08/25 11:58:33;;;;;;;14.95;5.18;;;17.60;99.90;;;;;;5030715;28;20470;-79
2021/08/25 12:01:01;;;;;;;5.85;3.80;;;17.90;99.90;;;;;;5030485;28;20053;-77
2021/08/25 12:03:42;;;;;;;6.82;3.92;;;18.00;99.90;;;;;;5029210;28;20121;-74
2021/08/25 12:06:11;;;;;;;6.13;3.28;;;17.90;99.90;;;;;;5030174;28;20045;-74
2021/08/25 12:08:43;;;;;;;6.28;3.67;;;17.70;99.90;;;;;;5029928;28;20041;-71
2021/08/25 12:11:12;;;;;;;4.78;3.47;;;17.50;99.90;;;;;;5029936;28;20416;-75
2021/08/25 12:13:44;;;;;;;10.77;4.65;;;17.60;99.90;;;;;;5028584;28;20068;-74
2021/08/25 12:16:27;;;;;;;5.07;2.95;;;17.60;99.90;;;;;;5030074;28;20037;-74
2021/08/25 12:18:59;;;;;;;3.47;2.65;;;17.80;99.90;;;;;;5030346;28;20064;-72
2021/08/25 12:21:33;;;;;;;6.88;3.38;;;17.90;99.90;;;;;;5028770;28;20360;-75
2021/08/25 12:24:11;;;;;;;6.47;3.30;;;17.60;99.90;;;;;;5030271;28;20045;-78
2021/08/25 12:26:51;;;;;;;10.60;3.75;;;17.70;99.90;;;;;;5028378;28;20047;-76
2021/08/25 12:29:29;;;;;;;7.50;3.40;;;17.70;99.90;;;;;;5028237;28;20041;-70
2021/08/25 12:31:57;;;;;;;6.57;2.88;;;17.90;99.90;;;;;;5029803;28;20282;-75
2021/08/25 12:34:25;;;;;;;4.50;3.03;;;17.90;99.90;;;;;;5029937;28;20121;-72
2021/08/25 12:36:51;;;;;;;5.63;3.55;;;18.00;99.90;;;;;;5030152;28;20064;-77
2021/08/25 12:39:40;;;;;;;6.13;3.85;;;18.00;99.90;;;;;;5028703;28;20120;-74
2021/08/25 12:42:07;;;;;;;;;;;18.00;99.90;;;;;;5030563;28;20061;-76
2021/08/25 12:44:34;;;;;;;11.38;6.90;;;18.00;99.90;;;;;;5030034;28;19921;-74
2021/08/25 12:47:03;;;;;;;7.65;4.10;;;17.90;99.90;;;;;;5029731;28;20037;-71
2021/08/25 12:49:32;;;;;;;7.28;4.40;;;17.90;99.90;;;;;;5028282;28;20065;-78
2021/08/25 12:52:00;;;;;;;5.72;4.68;;;18.10;99.90;;;;;;5029864;28;20038;-76
2021/08/25 12:54:27;;;;;;;15.85;10.32;;;18.40;99.90;;;;;;5029656;28;20157;-72
2021/08/25 12:56:55;;;;;;;6.47;5.47;;;18.60;99.90;;;;;;5029600;28;20060;-72
2021/08/25 12:59:23;;;;;;;4.65;3.92;;;18.60;99.90;;;;;;5026671;28;20088;-72